createdAt,value
2017-04-02T00:00:26.363Z,9.77
2017-04-02T00:01:15.113Z,9.78
2017-04-02T00:02:15.133Z,9.78
2017-04-02T00:03:04.244Z,9.76
2017-04-02T00:03:53.220Z,9.74
2017-04-02T00:04:53.242Z,9.76
2017-04-02T00:05:48.294Z,9.74
2017-04-02T00:06:43.334Z,9.74
2017-04-02T00:07:32.352Z,9.75
2017-04-02T00:08:26.688Z,9.74
2017-04-02T00:09:15.438Z,9.76
2017-04-02T00:10:15.438Z,9.76
2017-04-02T00:11:09.628Z,9.74
2017-04-02T00:12:03.537Z,9.77
2017-04-02T00:12:52.749Z,9.77
2017-04-02T00:13:46.641Z,9.74
2017-04-02T00:14:46.674Z,9.73
2017-04-02T00:15:47.690Z,9.71
2017-04-02T00:16:36.745Z,9.72
2017-04-02T00:17:24.733Z,9.70
2017-04-02T00:18:19.848Z,9.71
2017-04-02T00:19:14.855Z,9.69
2017-04-02T00:20:08.916Z,9.69
2017-04-02T00:20:57.910Z,9.67
2017-04-02T00:21:51.999Z,9.68
2017-04-02T00:22:41.012Z,9.68
2017-04-02T00:23:35.038Z,9.66
2017-04-02T00:24:29.327Z,9.65
2017-04-02T00:25:23.129Z,9.62
2017-04-02T00:26:23.145Z,9.58
2017-04-02T00:27:23.220Z,9.56
2017-04-02T00:28:18.197Z,9.54
2017-04-02T00:29:12.451Z,9.51
2017-04-02T00:30:12.329Z,9.52
2017-04-02T00:31:12.317Z,9.48
2017-04-02T00:32:07.382Z,9.48
2017-04-02T00:33:01.369Z,9.50
2017-04-02T00:34:01.431Z,9.48
2017-04-02T00:35:01.437Z,9.50
2017-04-02T00:35:50.471Z,9.49
2017-04-02T00:36:44.465Z,9.50
2017-04-02T00:37:44.506Z,9.50
2017-04-02T00:38:44.562Z,9.50
2017-04-02T00:39:44.571Z,9.46
2017-04-02T00:40:44.639Z,9.46
2017-04-02T00:41:39.697Z,9.44
2017-04-02T00:42:39.733Z,9.42
2017-04-02T00:43:39.729Z,9.42
2017-04-02T00:44:33.835Z,9.41
2017-04-02T00:45:28.811Z,9.42
2017-04-02T00:46:22.939Z,9.42
2017-04-02T00:47:10.927Z,9.43
2017-04-02T00:48:11.946Z,9.45
2017-04-02T00:48:59.990Z,9.47
2017-04-02T00:49:48.039Z,9.48
2017-04-02T00:50:37.067Z,9.48
2017-04-02T00:51:26.148Z,9.50
2017-04-02T00:52:15.128Z,9.50
2017-04-02T00:53:09.220Z,9.50
2017-04-02T00:53:58.254Z,9.51
2017-04-02T00:54:46.281Z,9.51
2017-04-02T00:55:40.282Z,9.51
2017-04-02T00:56:35.340Z,9.48
2017-04-02T00:57:23.377Z,9.50
2017-04-02T00:58:17.424Z,9.50
2017-04-02T00:59:11.413Z,9.48
2017-04-02T01:00:11.781Z,9.50
2017-04-02T01:01:11.490Z,9.48
2017-04-02T01:02:06.645Z,9.50
2017-04-02T01:03:00.640Z,9.52
2017-04-02T01:04:00.666Z,9.50
2017-04-02T01:04:55.691Z,9.52
2017-04-02T01:05:50.730Z,9.53
2017-04-02T01:06:50.738Z,9.54
2017-04-02T01:07:45.811Z,9.52
2017-04-02T01:08:40.811Z,9.50
2017-04-02T01:09:40.861Z,9.48
2017-04-02T01:10:34.857Z,9.46
2017-04-02T01:11:28.931Z,9.45
2017-04-02T01:12:17.975Z,9.42
2017-04-02T01:13:12.290Z,9.42
2017-04-02T01:14:12.328Z,9.42
2017-04-02T01:15:12.336Z,9.40
2017-04-02T01:16:06.145Z,9.36
2017-04-02T01:17:00.186Z,9.37
2017-04-02T01:17:49.203Z,9.40
2017-04-02T01:18:38.300Z,9.39
2017-04-02T01:19:33.673Z,9.38
2017-04-02T01:20:28.315Z,9.38
2017-04-02T01:21:17.336Z,9.40
2017-04-02T01:22:06.376Z,9.38
2017-04-02T01:23:00.448Z,9.37
2017-04-02T01:24:00.421Z,9.34
2017-04-02T01:24:55.492Z,9.34
2017-04-02T01:25:49.535Z,9.32
2017-04-02T01:26:37.549Z,9.32
2017-04-02T01:27:26.648Z,9.26
2017-04-02T01:28:21.652Z,9.28
2017-04-02T01:29:09.728Z,9.27
2017-04-02T01:30:04.750Z,9.25
2017-04-02T01:30:59.752Z,9.23
2017-04-02T01:31:48.732Z,9.24
2017-04-02T01:32:36.834Z,9.22
2017-04-02T01:33:31.862Z,9.22
2017-04-02T01:34:25.980Z,9.22
2017-04-02T01:35:15.211Z,9.18
2017-04-02T01:36:03.018Z,9.20
2017-04-02T01:36:50.965Z,9.21
2017-04-02T01:37:40.096Z,9.21
2017-04-02T01:38:29.103Z,9.23
2017-04-02T01:39:18.201Z,9.22
2017-04-02T01:40:12.212Z,9.18
2017-04-02T01:41:07.253Z,9.19
2017-04-02T01:42:07.242Z,9.18
2017-04-02T01:43:01.285Z,9.19
2017-04-02T01:43:50.297Z,9.16
2017-04-02T01:44:44.404Z,9.14
2017-04-02T01:45:38.464Z,9.14
2017-04-02T01:46:38.445Z,9.14
2017-04-02T01:47:32.461Z,9.12
2017-04-02T01:48:20.483Z,9.10
2017-04-02T01:49:14.530Z,9.08
2017-04-02T01:50:09.626Z,9.02
2017-04-02T01:50:58.722Z,9.02
2017-04-02T01:51:47.728Z,9.02
2017-04-02T01:52:47.705Z,8.96
2017-04-02T01:53:37.062Z,8.93
2017-04-02T01:54:30.776Z,8.92
2017-04-02T01:55:19.818Z,8.93
2017-04-02T01:56:08.889Z,8.92
2017-04-02T01:57:03.940Z,8.90
2017-04-02T01:58:03.943Z,8.92
2017-04-02T01:58:52.972Z,8.91
2017-04-02T01:59:40.985Z,8.91
2017-04-02T02:00:29.115Z,8.92
2017-04-02T02:01:17.116Z,8.92
2017-04-02T02:02:17.146Z,8.92
2017-04-02T02:03:12.159Z,8.93
2017-04-02T02:04:06.240Z,8.93
2017-04-02T02:05:06.246Z,8.92
2017-04-02T02:06:06.259Z,8.92
2017-04-02T02:07:01.397Z,8.90
2017-04-02T02:07:56.341Z,8.91
2017-04-02T02:08:44.348Z,8.91
2017-04-02T02:09:32.437Z,8.90
2017-04-02T02:10:21.437Z,8.92
2017-04-02T02:11:16.518Z,8.89
2017-04-02T02:12:05.537Z,8.90
2017-04-02T02:12:59.571Z,8.88
2017-04-02T02:13:53.627Z,8.90
2017-04-02T02:14:53.642Z,8.88
2017-04-02T02:15:53.702Z,8.88
2017-04-02T02:16:41.699Z,8.90
2017-04-02T02:17:29.870Z,8.91
2017-04-02T02:18:18.780Z,8.92
2017-04-02T02:19:13.863Z,8.92
2017-04-02T02:20:07.859Z,8.92
2017-04-02T02:21:07.916Z,8.94
2017-04-02T02:22:02.959Z,8.94
2017-04-02T02:22:58.039Z,8.94
2017-04-02T02:23:52.018Z,8.93
2017-04-02T02:24:46.058Z,8.92
2017-04-02T02:25:46.098Z,8.89
2017-04-02T02:26:40.418Z,8.88
2017-04-02T02:27:40.471Z,8.88
2017-04-02T02:28:29.242Z,8.85
2017-04-02T02:29:18.220Z,8.84
2017-04-02T02:30:18.299Z,8.90
2017-04-02T02:31:12.318Z,8.91
2017-04-02T02:32:00.370Z,8.94
2017-04-02T02:32:49.408Z,8.94
2017-04-02T02:33:37.466Z,8.95
2017-04-02T02:34:26.436Z,8.92
2017-04-02T02:35:21.481Z,8.91
2017-04-02T02:36:22.540Z,8.90
2017-04-02T02:37:10.628Z,8.90
2017-04-02T02:37:59.648Z,8.91
2017-04-02T02:38:53.736Z,8.90
2017-04-02T02:39:42.741Z,8.89
2017-04-02T02:40:31.747Z,8.88
2017-04-02T02:41:20.801Z,8.92
2017-04-02T02:42:15.841Z,8.91
2017-04-02T02:43:09.837Z,8.90
2017-04-02T02:44:10.940Z,8.92
2017-04-02T02:45:12.004Z,8.90
2017-04-02T02:46:11.995Z,8.94
2017-04-02T02:47:18.012Z,8.95
2017-04-02T02:48:06.037Z,8.91
2017-04-02T02:48:55.009Z,8.90
2017-04-02T02:49:50.125Z,8.90
2017-04-02T02:50:39.126Z,8.90
2017-04-02T02:51:34.197Z,8.88
2017-04-02T02:52:34.233Z,8.86
2017-04-02T02:53:28.235Z,8.83
2017-04-02T02:54:28.242Z,8.82
2017-04-02T02:55:23.352Z,8.82
2017-04-02T02:56:23.334Z,8.82
2017-04-02T02:57:17.414Z,8.80
2017-04-02T02:58:17.430Z,8.80
2017-04-02T02:59:12.462Z,8.80
2017-04-02T03:00:07.500Z,8.80
2017-04-02T03:01:07.559Z,8.80
2017-04-02T03:02:02.547Z,8.81
2017-04-02T03:02:57.614Z,8.80
2017-04-02T03:03:57.618Z,8.76
2017-04-02T03:04:52.621Z,8.77
2017-04-02T03:05:47.718Z,8.75
2017-04-02T03:06:48.733Z,8.73
2017-04-02T03:07:48.757Z,8.73
2017-04-02T03:08:48.796Z,8.71
2017-04-02T03:09:44.141Z,8.70
2017-04-02T03:10:37.822Z,8.68
2017-04-02T03:11:37.880Z,8.69
2017-04-02T03:12:33.077Z,8.68
2017-04-02T03:13:33.005Z,8.68
2017-04-02T03:14:27.144Z,8.69
2017-04-02T03:15:27.182Z,8.70
2017-04-02T03:16:22.074Z,8.72
2017-04-02T03:17:17.099Z,8.70
2017-04-02T03:18:17.152Z,8.70
2017-04-02T03:19:12.160Z,8.70
2017-04-02T03:20:07.230Z,8.68
2017-04-02T03:21:08.250Z,8.70
2017-04-02T03:22:08.261Z,8.68
2017-04-02T03:23:08.301Z,8.68
2017-04-02T03:24:03.330Z,8.68
2017-04-02T03:24:57.371Z,8.65
2017-04-02T03:25:57.410Z,8.65
2017-04-02T03:26:52.418Z,8.65
2017-04-02T03:27:52.455Z,8.64
2017-04-02T03:28:52.512Z,8.64
2017-04-02T03:29:52.576Z,8.63
2017-04-02T03:30:46.833Z,8.59
2017-04-02T03:31:46.620Z,8.60
2017-04-02T03:32:41.628Z,8.58
2017-04-02T03:33:41.650Z,8.56
2017-04-02T03:34:41.639Z,8.58
2017-04-02T03:35:41.720Z,8.56
2017-04-02T03:36:35.764Z,8.59
2017-04-02T03:37:35.800Z,8.59
2017-04-02T03:38:30.776Z,8.56
2017-04-02T03:39:30.815Z,8.58
2017-04-02T03:40:24.899Z,8.57
2017-04-02T03:41:24.943Z,8.52
2017-04-02T03:42:19.941Z,8.54
2017-04-02T03:43:19.990Z,8.56
2017-04-02T03:44:20.017Z,8.57
2017-04-02T03:45:20.029Z,8.58
2017-04-02T03:46:14.110Z,8.60
2017-04-02T03:47:14.177Z,8.61
2017-04-02T03:48:09.154Z,8.62
2017-04-02T03:49:04.210Z,8.60
2017-04-02T03:50:05.203Z,8.62
2017-04-02T03:51:05.229Z,8.64
2017-04-02T03:52:00.317Z,8.65
2017-04-02T03:53:06.333Z,8.66
2017-04-02T03:54:01.333Z,8.64
2017-04-02T03:55:01.402Z,8.63
2017-04-02T03:56:01.601Z,8.61
2017-04-02T03:57:02.420Z,8.61
2017-04-02T03:58:03.476Z,8.58
2017-04-02T03:59:03.515Z,8.59
2017-04-02T04:00:03.515Z,8.61
2017-04-02T04:00:58.561Z,8.61
2017-04-02T04:01:52.620Z,8.62
2017-04-02T04:02:52.671Z,8.62
2017-04-02T04:03:47.789Z,8.64
2017-04-02T04:04:47.723Z,8.61
2017-04-02T04:05:41.751Z,8.60
2017-04-02T04:06:41.747Z,8.60
2017-04-02T04:07:36.822Z,8.58
2017-04-02T04:08:31.936Z,8.57
2017-04-02T04:09:31.930Z,8.58
2017-04-02T04:10:26.998Z,8.58
2017-04-02T04:11:26.978Z,8.55
2017-04-02T04:12:26.954Z,8.56
2017-04-02T04:13:27.013Z,8.57
2017-04-02T04:14:21.047Z,8.60
2017-04-02T04:15:21.043Z,8.59
2017-04-02T04:16:16.068Z,8.58
2017-04-02T04:17:11.129Z,8.55
2017-04-02T04:18:12.138Z,8.55
2017-04-02T04:19:12.203Z,8.54
2017-04-02T04:20:12.245Z,8.51
2017-04-02T04:21:07.276Z,8.52
2017-04-02T04:22:08.720Z,8.52
2017-04-02T04:23:07.313Z,8.61
2017-04-02T04:24:01.321Z,8.64
2017-04-02T04:25:01.436Z,8.66
2017-04-02T04:25:50.523Z,8.66
2017-04-02T04:26:38.476Z,8.64
2017-04-02T04:27:38.534Z,8.66
2017-04-02T04:28:33.541Z,8.66
2017-04-02T04:29:39.597Z,8.65
2017-04-02T04:30:33.860Z,8.63
2017-04-02T04:31:33.662Z,8.65
2017-04-02T04:32:28.697Z,8.64
2017-04-02T04:33:28.754Z,8.64
2017-04-02T04:34:28.726Z,8.64
2017-04-02T04:35:34.768Z,8.62
2017-04-02T04:36:29.806Z,8.61
2017-04-02T04:37:29.823Z,8.63
2017-04-02T04:38:24.857Z,8.64
2017-04-02T04:39:20.040Z,8.64
2017-04-02T04:40:20.922Z,8.66
2017-04-02T04:41:15.970Z,8.69
2017-04-02T04:42:05.019Z,8.71
2017-04-02T04:42:54.035Z,8.71
2017-04-02T04:43:43.124Z,8.70
2017-04-02T04:44:32.148Z,8.72
2017-04-02T04:45:20.230Z,8.70
2017-04-02T04:46:14.247Z,8.72
2017-04-02T04:47:14.243Z,8.70
2017-04-02T04:48:08.262Z,8.70
2017-04-02T04:49:08.295Z,8.70
2017-04-02T04:50:03.367Z,8.70
2017-04-02T04:51:03.398Z,8.69
2017-04-02T04:52:03.429Z,8.68
2017-04-02T04:53:03.430Z,8.66
2017-04-02T04:53:57.518Z,8.65
2017-04-02T04:54:57.537Z,8.62
2017-04-02T04:55:52.598Z,8.64
2017-04-02T04:56:47.594Z,8.62
2017-04-02T04:57:47.639Z,8.62
2017-04-02T04:58:42.609Z,8.64
2017-04-02T04:59:37.726Z,8.65
2017-04-02T05:00:31.741Z,8.72
2017-04-02T05:01:32.786Z,8.69
2017-04-02T05:02:27.813Z,8.70
2017-04-02T05:03:27.869Z,8.68
2017-04-02T05:04:27.850Z,8.68
2017-04-02T05:05:27.837Z,8.69
2017-04-02T05:06:27.935Z,8.70
2017-04-02T05:07:27.957Z,8.70
2017-04-02T05:08:27.992Z,8.70
2017-04-02T05:09:23.023Z,8.74
2017-04-02T05:10:17.031Z,8.73
2017-04-02T05:11:18.114Z,8.73
2017-04-02T05:12:19.130Z,8.76
2017-04-02T05:13:19.326Z,8.70
2017-04-02T05:14:19.192Z,8.73
2017-04-02T05:15:19.171Z,8.70
2017-04-02T05:16:19.251Z,8.64
2017-04-02T05:17:14.484Z,8.64
2017-04-02T05:18:08.329Z,8.68
2017-04-02T05:19:02.382Z,8.68
2017-04-02T05:19:56.402Z,8.73
2017-04-02T05:20:56.479Z,8.72
2017-04-02T05:21:51.450Z,8.70
2017-04-02T05:22:46.538Z,8.72
2017-04-02T05:23:40.527Z,8.67
2017-04-02T05:24:40.549Z,8.68
2017-04-02T05:25:35.616Z,8.66
2017-04-02T05:26:41.650Z,8.67
2017-04-02T05:27:35.662Z,8.67
2017-04-02T05:28:23.720Z,8.70
2017-04-02T05:29:11.723Z,8.72
2017-04-02T05:30:01.003Z,8.73
2017-04-02T05:30:48.782Z,8.75
2017-04-02T05:31:48.888Z,8.70
2017-04-02T05:32:43.830Z,8.77
2017-04-02T05:33:38.934Z,8.73
2017-04-02T05:34:38.934Z,8.75
2017-04-02T05:35:34.046Z,8.74
2017-04-02T05:36:29.016Z,8.78
2017-04-02T05:37:23.121Z,8.74
2017-04-02T05:38:23.211Z,8.78
2017-04-02T05:39:18.433Z,8.76
2017-04-02T05:40:18.474Z,8.83
2017-04-02T05:41:13.261Z,8.82
2017-04-02T05:42:02.248Z,8.81
2017-04-02T05:42:51.261Z,8.84
2017-04-02T05:43:39.343Z,8.90
2017-04-02T05:44:27.370Z,8.85
2017-04-02T05:45:15.424Z,8.86
2017-04-02T05:46:03.490Z,8.84
2017-04-02T05:46:57.620Z,8.94
2017-04-02T05:47:46.556Z,8.92
2017-04-02T05:48:46.598Z,8.91
2017-04-02T05:49:35.636Z,8.94
2017-04-02T05:50:23.673Z,8.97
2017-04-02T05:51:12.742Z,8.94
2017-04-02T05:52:00.741Z,8.98
2017-04-02T05:52:50.084Z,8.97
2017-04-02T05:53:37.855Z,8.97
2017-04-02T05:54:25.915Z,8.99
2017-04-02T05:55:14.914Z,9.00
2017-04-02T05:56:08.935Z,9.04
2017-04-02T05:57:04.042Z,8.99
2017-04-02T05:58:04.021Z,9.03
2017-04-02T05:58:59.049Z,8.98
2017-04-02T05:59:54.105Z,9.00
2017-04-02T06:00:48.139Z,9.01
2017-04-02T06:01:43.185Z,9.06
2017-04-02T06:02:44.306Z,9.01
2017-04-02T06:03:44.254Z,8.96
2017-04-02T06:04:44.238Z,8.98
2017-04-02T06:05:33.291Z,8.94
2017-04-02T06:06:22.670Z,8.94
2017-04-02T06:07:16.413Z,8.95
2017-04-02T06:08:10.449Z,8.98
2017-04-02T06:08:58.561Z,8.94
2017-04-02T06:09:52.786Z,8.90
2017-04-02T06:10:52.527Z,8.84
2017-04-02T06:11:41.603Z,8.84
2017-04-02T06:12:35.612Z,8.78
2017-04-02T06:13:24.700Z,8.76
2017-04-02T06:14:13.763Z,8.68
2017-04-02T06:15:08.755Z,8.68
2017-04-02T06:15:56.800Z,8.68
2017-04-02T06:16:51.129Z,8.62
2017-04-02T06:17:45.920Z,8.60
2017-04-02T06:18:46.001Z,8.60
2017-04-02T06:19:45.936Z,8.60
2017-04-02T06:20:45.982Z,8.53
2017-04-02T06:21:46.028Z,8.48
2017-04-02T06:22:46.038Z,8.50
2017-04-02T06:23:46.113Z,8.47
2017-04-02T06:24:46.143Z,8.48
2017-04-02T06:25:46.145Z,8.47
2017-04-02T06:26:46.176Z,8.46
2017-04-02T06:27:46.207Z,8.44
2017-04-02T06:28:46.229Z,8.46
2017-04-02T06:29:46.287Z,8.54
2017-04-02T06:30:46.301Z,8.50
2017-04-02T06:31:52.339Z,8.55
2017-04-02T06:32:47.384Z,8.56
2017-04-02T06:33:41.429Z,8.58
2017-04-02T06:34:41.440Z,8.66
2017-04-02T06:35:36.605Z,8.71
2017-04-02T06:36:30.482Z,8.87
2017-04-02T06:37:30.529Z,9.24
2017-04-02T06:38:24.632Z,9.39
2017-04-02T06:39:19.657Z,9.36
2017-04-02T06:40:20.641Z,9.41
2017-04-02T06:41:20.739Z,9.30
2017-04-02T06:42:20.746Z,9.32
2017-04-02T06:43:14.752Z,9.26
2017-04-02T06:44:14.815Z,9.27
2017-04-02T06:45:09.859Z,9.20
2017-04-02T06:45:59.198Z,9.22
2017-04-02T06:46:46.943Z,9.27
2017-04-02T06:47:35.931Z,9.25
2017-04-02T06:48:25.076Z,9.29
2017-04-02T06:49:26.029Z,9.31
2017-04-02T06:50:14.074Z,9.36
2017-04-02T06:51:08.114Z,9.52
2017-04-02T06:52:09.225Z,9.80
2017-04-02T06:53:10.219Z,10.30
2017-04-02T06:54:05.200Z,10.74
2017-04-02T06:55:05.243Z,11.22
2017-04-02T06:56:05.268Z,11.48
2017-04-02T06:57:05.282Z,11.38
2017-04-02T06:58:11.352Z,11.60
2017-04-02T06:59:06.386Z,11.84
2017-04-02T07:00:00.491Z,12.19
2017-04-02T07:00:54.496Z,12.58
2017-04-02T07:01:54.521Z,12.83
2017-04-02T07:02:55.571Z,12.96
2017-04-02T07:03:55.597Z,12.82
2017-04-02T07:04:44.637Z,12.82
2017-04-02T07:05:33.986Z,12.72
2017-04-02T07:06:33.693Z,12.88
2017-04-02T07:07:28.739Z,12.93
2017-04-02T07:08:23.836Z,13.02
2017-04-02T07:09:18.222Z,13.11
2017-04-02T07:10:17.895Z,12.95
2017-04-02T07:11:12.950Z,12.88
2017-04-02T07:12:07.985Z,12.76
2017-04-02T07:13:03.026Z,12.64
2017-04-02T07:13:52.032Z,12.76
2017-04-02T07:14:52.120Z,12.78
2017-04-02T07:15:47.135Z,12.74
2017-04-02T07:16:41.140Z,12.62
2017-04-02T07:17:41.168Z,12.59
2017-04-02T07:18:29.259Z,12.65
2017-04-02T07:19:29.322Z,12.78
2017-04-02T07:20:24.380Z,12.94
2017-04-02T07:21:13.359Z,12.89
2017-04-02T07:22:08.750Z,12.96
2017-04-02T07:23:09.468Z,13.52
2017-04-02T07:24:10.453Z,13.90
2017-04-02T07:25:10.521Z,14.19
2017-04-02T07:26:10.609Z,14.49
2017-04-02T07:27:04.642Z,14.55
2017-04-02T07:27:52.720Z,14.52
2017-04-02T07:28:40.681Z,14.51
2017-04-02T07:29:29.800Z,14.64
2017-04-02T07:30:23.852Z,15.10
2017-04-02T07:31:17.851Z,15.28
2017-04-02T07:32:07.229Z,15.29
2017-04-02T07:33:00.955Z,15.40
2017-04-02T07:33:56.049Z,15.58
2017-04-02T07:34:50.038Z,15.57
2017-04-02T07:35:39.405Z,15.55
2017-04-02T07:36:34.189Z,15.26
2017-04-02T07:37:28.216Z,15.18
2017-04-02T07:38:23.256Z,15.17
2017-04-02T07:39:11.261Z,14.96
2017-04-02T07:40:12.416Z,15.24
2017-04-02T07:41:12.328Z,15.40
2017-04-02T07:42:07.439Z,15.71
2017-04-02T07:43:07.456Z,15.89
2017-04-02T07:44:01.541Z,15.92
2017-04-02T07:44:56.546Z,15.80
2017-04-02T07:45:56.589Z,15.76
2017-04-02T07:46:56.635Z,15.32
2017-04-02T07:47:51.695Z,15.02
2017-04-02T07:48:46.939Z,15.18
2017-04-02T07:49:47.000Z,15.58
2017-04-02T07:50:41.056Z,16.08
2017-04-02T07:51:34.845Z,15.70
2017-04-02T07:52:23.844Z,15.55
2017-04-02T07:53:13.251Z,15.60
2017-04-02T07:54:13.271Z,15.60
2017-04-02T07:55:02.032Z,15.60
2017-04-02T07:55:56.116Z,15.82
2017-04-02T07:56:51.076Z,15.94
2017-04-02T07:57:51.216Z,15.67
2017-04-02T07:58:46.251Z,15.66
2017-04-02T07:59:41.258Z,16.00
2017-04-02T08:00:35.319Z,16.38
2017-04-02T08:01:23.364Z,16.34
2017-04-02T08:02:11.439Z,16.59
2017-04-02T08:03:05.458Z,16.74
2017-04-02T08:03:54.537Z,16.82
2017-04-02T08:04:48.539Z,16.97
2017-04-02T08:05:54.627Z,17.52
2017-04-02T08:06:49.607Z,17.65
2017-04-02T08:07:49.709Z,18.06
2017-04-02T08:08:43.769Z,18.45
2017-04-02T08:09:37.837Z,18.82
2017-04-02T08:10:32.852Z,18.82
2017-04-02T08:11:21.929Z,18.36
2017-04-02T08:12:10.957Z,18.38
2017-04-02T08:13:05.017Z,18.62
2017-04-02T08:14:05.050Z,19.20
2017-04-02T08:14:59.168Z,19.47
2017-04-02T08:15:53.153Z,19.50
2017-04-02T08:16:47.509Z,19.26
2017-04-02T08:17:42.274Z,19.32
2017-04-02T08:18:36.349Z,19.40
2017-04-02T08:19:31.383Z,19.62
2017-04-02T08:20:25.364Z,19.89
2017-04-02T08:21:20.450Z,19.88
2017-04-02T08:22:08.547Z,19.83
2017-04-02T08:23:02.531Z,19.24
2017-04-02T08:23:56.638Z,18.88
2017-04-02T08:24:44.635Z,18.44
2017-04-02T08:25:39.742Z,17.95
2017-04-02T08:26:28.783Z,17.70
2017-04-02T08:27:23.838Z,17.71
2017-04-02T08:28:12.891Z,17.32
2017-04-02T08:29:06.998Z,16.92
2017-04-02T08:30:07.002Z,16.82
2017-04-02T08:30:56.046Z,16.80
2017-04-02T08:31:50.405Z,16.56
2017-04-02T08:32:44.140Z,16.11
2017-04-02T08:33:38.193Z,15.33
2017-04-02T08:34:27.257Z,14.81
2017-04-02T08:35:21.733Z,14.70
2017-04-02T08:36:15.360Z,15.15
2017-04-02T08:37:15.382Z,16.14
2017-04-02T08:38:09.444Z,17.06
2017-04-02T08:39:09.460Z,17.68
2017-04-02T08:40:04.555Z,17.99
2017-04-02T08:40:58.616Z,18.06
2017-04-02T08:41:58.643Z,17.83
2017-04-02T08:42:52.978Z,17.62
2017-04-02T08:43:53.067Z,17.98
2017-04-02T08:44:46.754Z,18.54
2017-04-02T08:45:46.851Z,18.94
2017-04-02T08:46:40.892Z,18.50
2017-04-02T08:47:42.001Z,17.28
2017-04-02T08:48:35.976Z,16.78
2017-04-02T08:49:25.272Z,16.27
2017-04-02T08:50:25.370Z,15.59
2017-04-02T08:51:14.143Z,15.96
2017-04-02T08:52:09.210Z,16.45
2017-04-02T08:53:09.264Z,17.36
2017-04-02T08:53:57.265Z,18.03
2017-04-02T08:54:52.334Z,18.71
2017-04-02T08:55:41.375Z,19.51
2017-04-02T08:56:36.418Z,19.83
2017-04-02T08:57:24.816Z,19.76
2017-04-02T08:58:18.607Z,18.76
2017-04-02T08:59:12.628Z,17.44
2017-04-02T09:00:07.657Z,17.00
2017-04-02T09:01:02.041Z,17.21
2017-04-02T09:01:49.753Z,17.62
2017-04-02T09:02:44.854Z,18.17
2017-04-02T09:03:44.940Z,18.80
2017-04-02T09:04:34.214Z,19.20
2017-04-02T09:05:22.985Z,19.86
2017-04-02T09:06:23.076Z,20.33
2017-04-02T09:07:12.149Z,20.49
2017-04-02T09:08:01.463Z,19.97
2017-04-02T09:08:49.540Z,19.30
2017-04-02T09:09:38.244Z,18.55
2017-04-02T09:10:27.643Z,17.93
2017-04-02T09:11:16.413Z,17.57
2017-04-02T09:12:11.433Z,17.76
2017-04-02T09:13:11.534Z,18.17
2017-04-02T09:14:00.136Z,18.04
2017-04-02T09:15:00.073Z,17.64
2017-04-02T09:15:54.657Z,17.51
2017-04-02T09:16:48.733Z,17.17
2017-04-02T09:17:42.761Z,16.91
2017-04-02T09:18:32.241Z,16.65
2017-04-02T09:19:26.545Z,16.33
2017-04-02T09:20:25.958Z,15.85
2017-04-02T09:21:21.020Z,15.51
2017-04-02T09:22:10.069Z,15.06
2017-04-02T09:23:05.117Z,14.77
2017-04-02T09:23:59.467Z,14.42
2017-04-02T09:24:54.501Z,14.16
2017-04-02T09:25:42.238Z,13.93
2017-04-02T09:26:42.330Z,13.58
2017-04-02T09:27:31.658Z,13.28
2017-04-02T09:28:19.397Z,13.01
2017-04-02T09:29:07.445Z,12.85
2017-04-02T09:30:02.175Z,12.68
2017-04-02T09:31:02.868Z,12.57
2017-04-02T09:32:03.867Z,13.26
2017-04-02T09:32:52.659Z,13.86
2017-04-02T09:33:47.721Z,14.01
2017-04-02T09:34:41.742Z,14.64
2017-04-02T09:35:29.867Z,15.33
2017-04-02T09:36:23.839Z,15.99
2017-04-02T09:37:12.882Z,16.77
2017-04-02T09:38:12.943Z,17.62
2017-04-02T09:39:02.213Z,18.24
2017-04-02T09:39:57.022Z,18.74
2017-04-02T09:40:51.119Z,19.32
2017-04-02T09:41:40.132Z,19.88
2017-04-02T09:42:40.206Z,20.27
2017-04-02T09:43:34.558Z,20.89
2017-04-02T09:44:23.288Z,21.42
2017-04-02T09:45:12.353Z,21.35
2017-04-02T09:46:06.819Z,21.28
2017-04-02T09:47:00.452Z,20.56
2017-04-02T09:47:48.513Z,20.06
2017-04-02T09:48:48.519Z,18.96
2017-04-02T09:49:37.601Z,18.90
2017-04-02T09:50:32.670Z,19.21
2017-04-02T09:51:26.796Z,19.29
2017-04-02T09:52:14.747Z,19.49
2017-04-02T09:53:15.812Z,19.38
2017-04-02T09:54:15.870Z,18.92
2017-04-02T09:55:10.178Z,19.10
2017-04-02T09:56:09.904Z,19.44
2017-04-02T09:56:59.043Z,19.74
2017-04-02T09:57:53.038Z,20.04
2017-04-02T09:58:47.134Z,19.74
2017-04-02T09:59:41.124Z,19.75
2017-04-02T10:00:36.537Z,20.45
2017-04-02T10:01:24.259Z,21.02
2017-04-02T10:02:18.352Z,21.02
2017-04-02T10:03:06.738Z,20.94
2017-04-02T10:04:07.753Z,20.58
2017-04-02T10:05:01.526Z,20.48
2017-04-02T10:05:50.531Z,20.45
2017-04-02T10:06:45.602Z,20.41
2017-04-02T10:07:40.169Z,20.26
2017-04-02T10:08:33.727Z,19.64
2017-04-02T10:09:22.757Z,20.14
2017-04-02T10:10:16.838Z,20.94
2017-04-02T10:11:11.195Z,20.89
2017-04-02T10:12:11.265Z,20.30
2017-04-02T10:13:06.255Z,20.13
2017-04-02T10:14:00.019Z,20.39
2017-04-02T10:14:54.085Z,20.75
2017-04-02T10:15:48.125Z,20.23
2017-04-02T10:16:42.509Z,19.74
2017-04-02T10:17:37.257Z,20.05
2017-04-02T10:18:26.392Z,20.17
2017-04-02T10:19:14.645Z,20.03
2017-04-02T10:20:09.407Z,20.24
2017-04-02T10:21:09.495Z,20.61
2017-04-02T10:21:58.630Z,20.98
2017-04-02T10:22:58.621Z,20.78
2017-04-02T10:23:52.713Z,20.95
2017-04-02T10:24:41.735Z,21.02
2017-04-02T10:25:35.742Z,20.74
2017-04-02T10:26:24.813Z,20.72
2017-04-02T10:27:12.860Z,20.48
2017-04-02T10:28:01.974Z,19.94
2017-04-02T10:29:02.037Z,19.10
2017-04-02T10:29:56.070Z,18.53
2017-04-02T10:30:50.025Z,18.51
2017-04-02T10:31:44.268Z,18.82
2017-04-02T10:32:38.215Z,19.32
2017-04-02T10:33:32.259Z,19.13
2017-04-02T10:34:27.325Z,18.60
2017-04-02T10:35:21.330Z,17.71
2017-04-02T10:36:15.740Z,17.43
2017-04-02T10:37:10.476Z,17.12
2017-04-02T10:38:04.522Z,16.70
2017-04-02T10:39:04.619Z,16.24
2017-04-02T10:39:59.800Z,15.94
2017-04-02T10:40:53.645Z,15.76
2017-04-02T10:41:48.018Z,15.77
2017-04-02T10:42:36.856Z,15.65
2017-04-02T10:43:36.837Z,15.63
2017-04-02T10:44:25.919Z,16.08
2017-04-02T10:45:20.422Z,16.61
2017-04-02T10:46:20.456Z,17.44
2017-04-02T10:47:09.048Z,17.99
2017-04-02T10:47:58.111Z,17.68
2017-04-02T10:48:46.134Z,17.22
2017-04-02T10:49:40.232Z,16.51
2017-04-02T10:50:34.288Z,16.73
2017-04-02T10:51:29.334Z,17.28
2017-04-02T10:52:24.325Z,17.92
2017-04-02T10:53:24.397Z,18.04
2017-04-02T10:54:18.481Z,17.46
2017-04-02T10:55:13.494Z,16.94
2017-04-02T10:56:07.722Z,16.40
2017-04-02T10:57:01.606Z,16.55
2017-04-02T10:57:56.675Z,17.28
2017-04-02T10:58:51.000Z,18.18
2017-04-02T10:59:45.745Z,18.39
2017-04-02T11:00:40.823Z,18.50
2017-04-02T11:01:40.864Z,19.03
2017-04-02T11:02:34.922Z,19.04
2017-04-02T11:03:24.177Z,18.96
2017-04-02T11:04:25.050Z,19.28
2017-04-02T11:05:25.007Z,19.10
2017-04-02T11:06:14.149Z,19.12
2017-04-02T11:07:03.250Z,18.86
2017-04-02T11:08:03.240Z,18.42
2017-04-02T11:08:57.225Z,18.24
2017-04-02T11:09:46.387Z,18.63
2017-04-02T11:10:35.345Z,19.28
2017-04-02T11:11:29.373Z,20.17
2017-04-02T11:12:18.545Z,20.83
2017-04-02T11:13:12.528Z,20.59
2017-04-02T11:14:07.602Z,20.36
2017-04-02T11:14:57.013Z,20.01
2017-04-02T11:15:57.643Z,19.78
2017-04-02T11:16:46.766Z,19.79
2017-04-02T11:17:40.815Z,20.07
2017-04-02T11:18:40.859Z,20.43
2017-04-02T11:19:35.944Z,21.18
2017-04-02T11:20:35.936Z,21.64
2017-04-02T11:21:25.304Z,21.90
2017-04-02T11:22:25.306Z,21.97
2017-04-02T11:23:13.122Z,21.70
2017-04-02T11:24:02.157Z,21.42
2017-04-02T11:25:08.209Z,20.18
2017-04-02T11:25:56.559Z,19.75
2017-04-02T11:26:50.329Z,19.29
2017-04-02T11:27:38.367Z,18.64
2017-04-02T11:28:26.759Z,18.02
2017-04-02T11:29:20.486Z,17.59
2017-04-02T11:30:09.560Z,16.95
2017-04-02T11:30:58.878Z,16.81
2017-04-02T11:31:47.626Z,17.23
2017-04-02T11:32:47.705Z,18.21
2017-04-02T11:33:42.745Z,19.24
2017-04-02T11:34:36.834Z,20.05
2017-04-02T11:35:31.845Z,20.43
2017-04-02T11:36:20.866Z,20.80
2017-04-02T11:37:15.292Z,20.40
2017-04-02T11:38:09.026Z,20.48
2017-04-02T11:39:03.055Z,20.78
2017-04-02T11:39:57.136Z,20.82
2017-04-02T11:40:45.224Z,20.88
2017-04-02T11:41:40.255Z,21.02
2017-04-02T11:42:29.580Z,21.41
2017-04-02T11:43:24.345Z,21.77
2017-04-02T11:44:18.472Z,21.98
2017-04-02T11:45:12.446Z,22.23
2017-04-02T11:46:00.811Z,21.97
2017-04-02T11:47:00.868Z,21.45
2017-04-02T11:47:55.644Z,20.94
2017-04-02T11:48:43.690Z,20.40
2017-04-02T11:49:44.759Z,19.63
2017-04-02T11:50:34.132Z,19.12
2017-04-02T11:51:22.854Z,18.84
2017-04-02T11:52:17.904Z,18.34
2017-04-02T11:53:11.954Z,18.22
2017-04-02T11:54:07.006Z,18.68
2017-04-02T11:55:07.048Z,19.06
2017-04-02T11:56:02.126Z,19.74
2017-04-02T11:56:50.307Z,20.42
2017-04-02T11:57:39.234Z,21.07
2017-04-02T11:58:34.304Z,21.40